^^
Station Historical Data
 
Daily Summary for January 21, 2018 Units:  English    Metric   Both
« Previous Day
Next Day »
Daily Weekly Monthly Yearly Custom
  Current: High: Low: Average:
Temperature: 37.9 °F 38.1 °F 35.7 °F 36.5 °F
Dew Point: 37.1 °F 37.1 °F 34.0 °F 35.2 °F
Humidity: 97 % 97 % 87 % 95 %
Wind Speed: 0.0 mph 0.0 mph 0.0 mph 0 mph
Wind Gust: 0.0 mph 0.0 mph - -
Wind:Calm - - North
Pressure: 30.12 in 30.12 in 30.10 in -
Precipitation: 0.03 in      
Historical Graphs
 
 
Tabular Data for January 21, 2018
Time Temperature Dew Point Pressure Wind Wind Speed Wind Gust Humidity Rainfall Rate (Hourly) solar Conditions
00:00 37.5 °F 34.0 °F 30.12 in Calm     87 % 0.00 in 0.0 W/m2 RA
00:05 37.4 °F 34.2 °F 30.12 in Calm     88 % 0.00 in 0.0 W/m2 RA
00:10 37.3 °F 34.1 °F 30.12 in Calm     88 % 0.00 in 0.0 W/m2 OVC
00:15 37.3 °F 34.1 °F 30.12 in Calm     88 % 0.00 in 0.0 W/m2 OVC
00:20 37.3 °F 34.4 °F 30.12 in Calm     89 % 0.00 in 0.0 W/m2 OVC
00:25 37.2 °F 34.0 °F 30.12 in Calm     88 % 0.00 in 0.0 W/m2 OVC
00:30 37.2 °F 34.3 °F 30.12 in Calm     89 % 0.00 in 0.0 W/m2 OVC
00:35 37.2 °F 34.3 °F 30.12 in Calm     89 % 0.00 in 0.0 W/m2 OVC
00:40 37.3 °F 34.6 °F 30.12 in Calm     90 % 0.00 in 0.0 W/m2 OVC
00:45 37.5 °F 35.4 °F 30.12 in Calm     92 % 0.00 in 0.0 W/m2 OVC
00:50 37.8 °F 36.0 °F 30.12 in Calm     93 % 0.00 in 0.0 W/m2 OVC
00:55 38.0 °F 36.2 °F 30.11 in Calm     93 % 0.00 in 0.0 W/m2 OVC
01:00 38.1 °F 36.3 °F 30.11 in Calm     93 % 0.00 in 0.0 W/m2 OVC
01:05 38.1 °F 36.0 °F 30.11 in Calm     92 % 0.00 in 0.0 W/m2 OVC
01:10 37.8 °F 35.7 °F 30.11 in Calm     92 % 0.00 in 0.0 W/m2 OVC
01:15 37.6 °F 35.5 °F 30.11 in Calm     92 % 0.00 in 0.0 W/m2 OVC
01:20 37.5 °F 35.7 °F 30.11 in Calm     93 % 0.00 in 0.0 W/m2 OVC
01:25 37.4 °F 35.6 °F 30.11 in Calm     93 % 0.00 in 0.0 W/m2 OVC
01:30 37.4 °F 35.8 °F 30.11 in Calm     94 % 0.01 in 0.0 W/m2 RA
01:35 37.5 °F 35.9 °F 30.11 in Calm     94 % 0.01 in 0.0 W/m2 RA
01:40 37.6 °F 36.0 °F 30.11 in Calm     94 % 0.01 in 0.0 W/m2 OVC
01:45 37.7 °F 36.1 °F 30.11 in Calm     94 % 0.01 in 0.0 W/m2 OVC
01:50 37.5 °F 35.9 °F 30.11 in Calm     94 % 0.01 in 0.0 W/m2 OVC
01:55 37.3 °F 35.7 °F 30.11 in Calm     94 % 0.01 in 0.0 W/m2 OVC
02:00 37.0 °F 35.4 °F 30.11 in Calm     94 % 0.01 in 0.0 W/m2 OVC
02:05 36.9 °F 35.3 °F 30.11 in Calm     94 % 0.01 in 0.0 W/m2 OVC
02:10 36.9 °F 35.3 °F 30.12 in Calm     94 % 0.01 in 0.0 W/m2 OVC
02:15 36.8 °F 35.2 °F 30.12 in Calm     94 % 0.01 in 0.0 W/m2 OVC
02:20 36.8 °F 35.2 °F 30.12 in Calm     94 % 0.02 in 0.0 W/m2 RA
02:25 36.7 °F 35.4 °F 30.12 in Calm     95 % 0.02 in 0.0 W/m2 RA
02:30 37.0 °F 35.7 °F 30.12 in Calm     95 % 0.01 in 0.0 W/m2 OVC
02:35 36.8 °F 35.5 °F 30.12 in Calm     95 % 0.01 in 0.0 W/m2 OVC
02:46 36.6 °F 35.3 °F 30.12 in Calm     95 % 0.01 in 0.0 W/m2 OVC
02:51 36.6 °F 35.3 °F 30.12 in Calm     95 % 0.01 in 0.0 W/m2 OVC
03:01 36.2 °F 34.6 °F 30.12 in Calm     94 % 0.01 in 0.0 W/m2 OVC
03:11 36.1 °F 34.8 °F 30.12 in Calm     95 % 0.01 in 0.0 W/m2 OVC
03:16 35.9 °F 34.6 °F 30.12 in Calm     95 % 0.01 in 0.0 W/m2 OVC
03:21 35.9 °F 34.6 °F 30.12 in Calm     95 % 0.00 in 0.0 W/m2 OVC
03:31 35.9 °F 34.6 °F 30.12 in Calm     95 % 0.00 in 0.0 W/m2 OVC
03:36 36.0 °F 35.0 °F 30.12 in Calm     96 % 0.00 in 0.0 W/m2 OVC
03:41 36.1 °F 35.1 °F 30.12 in Calm     96 % 0.00 in 0.0 W/m2 OVC
03:46 36.1 °F 34.8 °F 30.11 in Calm     95 % 0.00 in 0.0 W/m2 OVC
03:51 36.0 °F 34.7 °F 30.11 in Calm     95 % 0.00 in 0.0 W/m2 OVC
03:56 35.9 °F 34.6 °F 30.11 in Calm     95 % 0.00 in 0.0 W/m2 OVC
04:01 35.9 °F 34.9 °F 30.11 in Calm     96 % 0.00 in 0.0 W/m2 OVC
04:06 35.9 °F 34.9 °F 30.11 in Calm     96 % 0.00 in 0.0 W/m2 OVC
04:11 35.9 °F 34.6 °F 30.11 in Calm     95 % 0.00 in 0.0 W/m2 OVC
04:16 35.9 °F 34.9 °F 30.11 in Calm     96 % 0.00 in 0.0 W/m2 OVC
04:21 35.9 °F 34.6 °F 30.11 in Calm     95 % 0.01 in 0.0 W/m2 RA
04:26 35.9 °F 34.9 °F 30.11 in Calm     96 % 0.01 in 0.0 W/m2 RA
04:31 35.9 °F 34.9 °F 30.11 in Calm     96 % 0.01 in 0.0 W/m2 OVC
04:36 35.8 °F 34.8 °F 30.11 in Calm     96 % 0.01 in 0.0 W/m2 OVC
04:41 35.9 °F 34.9 °F 30.11 in Calm     96 % 0.01 in 0.0 W/m2 OVC
04:46 36.0 °F 35.0 °F 30.11 in Calm     96 % 0.01 in 0.0 W/m2 OVC
04:51 36.0 °F 35.0 °F 30.11 in Calm     96 % 0.01 in 0.0 W/m2 OVC
04:56 36.1 °F 35.1 °F 30.11 in Calm     96 % 0.01 in 0.0 W/m2 OVC
05:01 36.1 °F 35.1 °F 30.11 in Calm     96 % 0.01 in 0.0 W/m2 OVC
05:06 36.1 °F 35.1 °F 30.11 in Calm     96 % 0.01 in 0.0 W/m2 OVC
05:11 36.1 °F 35.1 °F 30.11 in Calm     96 % 0.01 in 0.0 W/m2 OVC
05:16 36.1 °F 35.1 °F 30.11 in Calm     96 % 0.01 in 0.0 W/m2 OVC
05:21 36.1 °F 35.1 °F 30.11 in Calm     96 % 0.00 in 0.0 W/m2 OVC
05:26 36.0 °F 35.0 °F 30.10 in Calm     96 % 0.00 in 0.0 W/m2 OVC
05:31 35.9 °F 34.9 °F 30.11 in Calm     96 % 0.00 in 0.0 W/m2 OVC
05:36 35.8 °F 34.8 °F 30.11 in Calm     96 % 0.00 in 0.0 W/m2 OVC
05:41 35.8 °F 34.8 °F 30.10 in Calm     96 % 0.00 in 0.0 W/m2 OVC
05:46 35.8 °F 34.8 °F 30.10 in Calm     96 % 0.00 in 0.0 W/m2 OVC
05:51 36.0 °F 35.0 °F 30.10 in Calm     96 % 0.00 in 0.0 W/m2 OVC
05:56 36.1 °F 35.1 °F 30.10 in Calm     96 % 0.00 in 0.0 W/m2 OVC
06:01 36.0 °F 35.0 °F 30.11 in Calm     96 % 0.00 in 0.0 W/m2 OVC
06:06 36.1 °F 35.1 °F 30.11 in Calm     96 % 0.00 in 0.0 W/m2 OVC
06:11 36.1 °F 35.1 °F 30.11 in Calm     96 % 0.00 in 0.0 W/m2 OVC
06:17 36.1 °F 35.1 °F 30.11 in Calm     96 % 0.00 in 0.0 W/m2 OVC
06:22 36.1 °F 35.1 °F 30.11 in Calm     96 % 0.00 in 0.0 W/m2 OVC
06:27 36.1 °F 35.1 °F 30.11 in Calm     96 % 0.00 in 0.0 W/m2 OVC
06:32 36.1 °F 35.1 °F 30.11 in Calm     96 % 0.00 in 0.0 W/m2 OVC
06:37 36.3 °F 35.3 °F 30.11 in Calm     96 % 0.00 in 0.0 W/m2 OVC
06:42 36.3 °F 35.3 °F 30.11 in Calm     96 % 0.00 in 0.0 W/m2 OVC
06:47 36.2 °F 35.2 °F 30.11 in Calm     96 % 0.00 in 0.0 W/m2 OVC
06:51 36.3 °F 35.3 °F 30.11 in Calm     96 % 0.00 in 0.0 W/m2 OVC
06:56 36.3 °F 35.3 °F 30.11 in Calm     96 % 0.00 in 0.0 W/m2 OVC
07:01 36.3 °F 35.3 °F 30.11 in Calm     96 % 0.00 in 0.0 W/m2 OVC
07:06 36.1 °F 35.1 °F 30.11 in Calm     96 % 0.00 in 0.0 W/m2 OVC
07:12 36.1 °F 35.1 °F 30.11 in Calm     96 % 0.00 in 0.0 W/m2 OVC
07:17 36.1 °F 35.1 °F 30.11 in Calm     96 % 0.00 in 0.0 W/m2 OVC
07:22 35.9 °F 34.9 °F 30.12 in Calm     96 % 0.00 in 0.0 W/m2 OVC
07:27 35.9 °F 34.9 °F 30.11 in Calm     96 % 0.00 in 0.0 W/m2 OVC
07:32 35.8 °F 34.8 °F 30.11 in Calm     96 % 0.00 in 0.0 W/m2 OVC
07:37 35.9 °F 34.9 °F 30.11 in Calm     96 % 0.00 in 0.0 W/m2 OVC
07:42 35.8 °F 34.8 °F 30.12 in Calm     96 % 0.00 in 0.0 W/m2 OVC
07:47 35.8 °F 34.8 °F 30.12 in Calm     96 % 0.00 in 0.0 W/m2 OVC
07:52 35.7 °F 34.7 °F 30.12 in Calm     96 % 0.00 in 0.0 W/m2 OVC
07:57 35.8 °F 34.8 °F 30.11 in Calm     96 % 0.00 in 0.0 W/m2 OVC
08:02 35.8 °F 35.0 °F 30.11 in Calm     97 % 0.00 in 0.0 W/m2 OVC
08:07 35.8 °F 34.8 °F 30.11 in Calm     96 % 0.00 in 5.0 W/m2 BKN
08:12 35.8 °F 34.8 °F 30.11 in Calm     96 % 0.00 in 0.0 W/m2 OVC
08:17 35.8 °F 34.8 °F 30.11 in Calm     96 % 0.00 in 5.0 W/m2 BKN
08:22 35.7 °F 34.7 °F 30.11 in Calm     96 % 0.00 in 9.0 W/m2 BKN
08:27 35.9 °F 35.1 °F 30.11 in Calm     97 % 0.00 in 11.0 W/m2 BKN
08:32 36.0 °F 35.2 °F 30.11 in Calm     97 % 0.00 in 18.0 W/m2 BKN
08:37 36.1 °F 35.3 °F 30.11 in Calm     97 % 0.00 in 18.0 W/m2 BKN
08:42 36.2 °F 35.4 °F 30.11 in Calm     97 % 0.00 in 21.0 W/m2 BKN
08:47 36.2 °F 35.4 °F 30.11 in Calm     97 % 0.00 in 23.0 W/m2 BKN
08:52 36.4 °F 35.6 °F 30.11 in Calm     97 % 0.00 in 23.0 W/m2 BKN
08:57 36.4 °F 35.6 °F 30.12 in Calm     97 % 0.00 in 21.0 W/m2 BKN
09:02 36.6 °F 35.8 °F 30.12 in Calm     97 % 0.00 in 28.0 W/m2 BKN
09:07 36.8 °F 36.0 °F 30.12 in Calm     97 % 0.00 in 32.0 W/m2 BKN
09:12 36.9 °F 36.1 °F 30.12 in Calm     97 % 0.00 in 32.0 W/m2 BKN
09:17 37.1 °F 36.3 °F 30.12 in Calm     97 % 0.00 in 30.0 W/m2 BKN
09:22 37.3 °F 36.5 °F 30.12 in Calm     97 % 0.00 in 28.0 W/m2 BKN
09:27 37.4 °F 36.6 °F 30.12 in Calm     97 % 0.00 in 39.0 W/m2 BKN
09:32 37.6 °F 36.8 °F 30.12 in Calm     97 % 0.00 in 47.0 W/m2 BKN
09:37 37.7 °F 36.9 °F 30.12 in Calm     97 % 0.00 in 54.0 W/m2 BKN
09:42 37.8 °F 37.0 °F 30.12 in Calm     97 % 0.00 in 54.0 W/m2 BKN
09:47 37.9 °F 37.1 °F 30.12 in Calm     97 % 0.00 in 51.0 W/m2 BKN
Licking County Weather
Compliments of Weather Underground - 2 mb